sensor_id;sensor_type;location;lat;lon;timestamp;temperature;humidity
336;DHT22;156;48.738;9.228;2023-05-10T00:00:57;13.30;99.90
336;DHT22;156;48.738;9.228;2023-05-10T00:03:24;13.30;99.90
336;DHT22;156;48.738;9.228;2023-05-10T00:05:51;13.30;99.90
336;DHT22;156;48.738;9.228;2023-05-10T00:08:18;13.30;99.90
336;DHT22;156;48.738;9.228;2023-05-10T00:10:45;13.20;99.90
336;DHT22;156;48.738;9.228;2023-05-10T00:13:12;13.20;99.90
336;DHT22;156;48.738;9.228;2023-05-10T00:15:43;13.10;99.90
336;DHT22;156;48.738;9.228;2023-05-10T00:18:13;13.10;99.90
336;DHT22;156;48.738;9.228;2023-05-10T00:20:39;13.10;99.90
336;DHT22;156;48.738;9.228;2023-05-10T00:23:06;12.90;99.90
336;DHT22;156;48.738;9.228;2023-05-10T00:25:33;12.90;99.90
336;DHT22;156;48.738;9.228;2023-05-10T00:28:00;12.90;99.90
336;DHT22;156;48.738;9.228;2023-05-10T00:30:28;12.90;99.90
336;DHT22;156;48.738;9.228;2023-05-10T00:32:58;12.80;99.90
336;DHT22;156;48.738;9.228;2023-05-10T00:35:25;12.80;99.90
336;DHT22;156;48.738;9.228;2023-05-10T00:37:52;12.90;99.90
336;DHT22;156;48.738;9.228;2023-05-10T00:40:19;12.80;99.90
336;DHT22;156;48.738;9.228;2023-05-10T00:42:46;12.70;99.90
336;DHT22;156;48.738;9.228;2023-05-10T00:45:13;12.60;99.90
336;DHT22;156;48.738;9.228;2023-05-10T00:47:49;12.60;99.90
336;DHT22;156;48.738;9.228;2023-05-10T00:50:19;12.60;99.90
336;DHT22;156;48.738;9.228;2023-05-10T00:52:46;12.50;99.90
336;DHT22;156;48.738;9.228;2023-05-10T00:55:13;12.50;99.90
336;DHT22;156;48.738;9.228;2023-05-10T00:57:40;12.40;99.90
336;DHT22;156;48.738;9.228;2023-05-10T01:00:08;12.40;99.90
336;DHT22;156;48.738;9.228;2023-05-10T01:02:39;12.50;99.90
336;DHT22;156;48.738;9.228;2023-05-10T01:05:07;12.40;99.90
336;DHT22;156;48.738;9.228;2023-05-10T01:07:35;12.40;99.90
336;DHT22;156;48.738;9.228;2023-05-10T01:10:02;12.40;99.90
336;DHT22;156;48.738;9.228;2023-05-10T01:12:29;12.30;99.90
336;DHT22;156;48.738;9.228;2023-05-10T01:14:56;12.30;99.90
336;DHT22;156;48.738;9.228;2023-05-10T01:17:24;12.30;99.90
336;DHT22;156;48.738;9.228;2023-05-10T01:19:52;12.30;99.90
336;DHT22;156;48.738;9.228;2023-05-10T01:22:39;12.20;99.90
336;DHT22;156;48.738;9.228;2023-05-10T01:25:28;12.20;99.90
336;DHT22;156;48.738;9.228;2023-05-10T01:28:13;12.20;99.90
336;DHT22;156;48.738;9.228;2023-05-10T01:33:44;12.20;99.90
336;DHT22;156;48.738;9.228;2023-05-10T01:36:16;12.20;99.90
336;DHT22;156;48.738;9.228;2023-05-10T01:38:56;12.20;99.90
336;DHT22;156;48.738;9.228;2023-05-10T01:41:28;12.20;99.90
336;DHT22;156;48.738;9.228;2023-05-10T01:44:00;12.20;99.90
336;DHT22;156;48.738;9.228;2023-05-10T01:46:33;12.20;99.90
336;DHT22;156;48.738;9.228;2023-05-10T01:49:08;12.20;99.90
336;DHT22;156;48.738;9.228;2023-05-10T01:51:41;12.20;99.90
336;DHT22;156;48.738;9.228;2023-05-10T01:54:10;12.20;99.90
336;DHT22;156;48.738;9.228;2023-05-10T01:56:39;12.20;99.90
336;DHT22;156;48.738;9.228;2023-05-10T02:02:07;12.10;99.90
336;DHT22;156;48.738;9.228;2023-05-10T02:04:39;12.10;99.90
336;DHT22;156;48.738;9.228;2023-05-10T02:07:07;12.10;99.90
336;DHT22;156;48.738;9.228;2023-05-10T02:09:35;12.10;99.90
336;DHT22;156;48.738;9.228;2023-05-10T02:12:05;12.20;99.90
336;DHT22;156;48.738;9.228;2023-05-10T02:14:35;12.10;99.90
336;DHT22;156;48.738;9.228;2023-05-10T02:17:04;12.10;99.90
336;DHT22;156;48.738;9.228;2023-05-10T02:19:32;12.10;99.90
336;DHT22;156;48.738;9.228;2023-05-10T02:22:02;12.20;99.90
336;DHT22;156;48.738;9.228;2023-05-10T02:24:30;12.20;99.90
336;DHT22;156;48.738;9.228;2023-05-10T02:26:59;12.20;99.90
336;DHT22;156;48.738;9.228;2023-05-10T02:29:27;12.30;99.90
336;DHT22;156;48.738;9.228;2023-05-10T02:31:55;12.30;99.90
336;DHT22;156;48.738;9.228;2023-05-10T02:34:25;12.40;99.90
336;DHT22;156;48.738;9.228;2023-05-10T02:36:53;12.40;99.90
336;DHT22;156;48.738;9.228;2023-05-10T02:39:22;12.40;99.90
336;DHT22;156;48.738;9.228;2023-05-10T02:41:50;12.40;99.90
336;DHT22;156;48.738;9.228;2023-05-10T02:44:19;12.40;99.90
336;DHT22;156;48.738;9.228;2023-05-10T02:46:47;12.40;99.90
336;DHT22;156;48.738;9.228;2023-05-10T02:49:14;12.30;99.90
336;DHT22;156;48.738;9.228;2023-05-10T02:51:43;12.30;99.90
336;DHT22;156;48.738;9.228;2023-05-10T02:54:15;12.30;99.90
336;DHT22;156;48.738;9.228;2023-05-10T02:56:49;12.30;99.90
336;DHT22;156;48.738;9.228;2023-05-10T02:59:20;12.20;99.90
336;DHT22;156;48.738;9.228;2023-05-10T03:01:46;12.40;99.90
336;DHT22;156;48.738;9.228;2023-05-10T03:04:13;12.40;99.90
336;DHT22;156;48.738;9.228;2023-05-10T03:06:41;12.40;99.90
336;DHT22;156;48.738;9.228;2023-05-10T03:09:08;12.40;99.90
336;DHT22;156;48.738;9.228;2023-05-10T03:11:45;12.50;99.90
336;DHT22;156;48.738;9.228;2023-05-10T03:14:24;12.60;99.90
336;DHT22;156;48.738;9.228;2023-05-10T03:16:58;12.50;99.90
336;DHT22;156;48.738;9.228;2023-05-10T03:19:32;12.40;99.90
336;DHT22;156;48.738;9.228;2023-05-10T03:22:03;12.40;99.90
336;DHT22;156;48.738;9.228;2023-05-10T03:24:31;12.40;99.90
336;DHT22;156;48.738;9.228;2023-05-10T03:27:00;12.30;99.90
336;DHT22;156;48.738;9.228;2023-05-10T03:29:30;12.20;99.90
336;DHT22;156;48.738;9.228;2023-05-10T03:31:58;12.20;99.90
336;DHT22;156;48.738;9.228;2023-05-10T03:34:25;12.30;99.90
336;DHT22;156;48.738;9.228;2023-05-10T03:36:52;12.30;99.90
336;DHT22;156;48.738;9.228;2023-05-10T03:39:19;12.20;99.90
336;DHT22;156;48.738;9.228;2023-05-10T03:41:47;12.10;99.90
336;DHT22;156;48.738;9.228;2023-05-10T03:44:13;12.10;99.90
336;DHT22;156;48.738;9.228;2023-05-10T03:46:42;12.10;99.90
336;DHT22;156;48.738;9.228;2023-05-10T03:49:09;12.10;99.90
336;DHT22;156;48.738;9.228;2023-05-10T03:51:35;12.10;99.90
336;DHT22;156;48.738;9.228;2023-05-10T03:54:03;12.20;99.90
336;DHT22;156;48.738;9.228;2023-05-10T03:56:29;12.10;99.90
336;DHT22;156;48.738;9.228;2023-05-10T03:58:56;12.00;99.90
336;DHT22;156;48.738;9.228;2023-05-10T04:01:26;12.00;99.90
336;DHT22;156;48.738;9.228;2023-05-10T04:03:54;12.00;99.90
336;DHT22;156;48.738;9.228;2023-05-10T04:06:21;11.90;99.90
336;DHT22;156;48.738;9.228;2023-05-10T04:08:48;11.90;99.90
336;DHT22;156;48.738;9.228;2023-05-10T04:11:15;11.80;99.90
336;DHT22;156;48.738;9.228;2023-05-10T04:13:42;11.90;99.90
336;DHT22;156;48.738;9.228;2023-05-10T04:16:11;12.00;99.90
336;DHT22;156;48.738;9.228;2023-05-10T04:18:38;11.90;99.90
336;DHT22;156;48.738;9.228;2023-05-10T04:21:11;11.80;99.90
336;DHT22;156;48.738;9.228;2023-05-10T04:23:39;11.90;99.90
336;DHT22;156;48.738;9.228;2023-05-10T04:26:06;11.90;99.90
336;DHT22;156;48.738;9.228;2023-05-10T04:28:33;11.90;99.90
336;DHT22;156;48.738;9.228;2023-05-10T04:31:03;11.90;99.90
336;DHT22;156;48.738;9.228;2023-05-10T04:33:30;12.00;99.90
336;DHT22;156;48.738;9.228;2023-05-10T04:36:00;12.00;99.90
336;DHT22;156;48.738;9.228;2023-05-10T04:38:32;12.00;99.90
336;DHT22;156;48.738;9.228;2023-05-10T04:41:06;12.00;99.90
336;DHT22;156;48.738;9.228;2023-05-10T04:43:33;12.10;99.90
336;DHT22;156;48.738;9.228;2023-05-10T04:46:00;12.10;99.90
336;DHT22;156;48.738;9.228;2023-05-10T04:48:27;12.10;99.90
336;DHT22;156;48.738;9.228;2023-05-10T04:50:55;12.10;99.90
336;DHT22;156;48.738;9.228;2023-05-10T04:53:22;12.00;99.90
336;DHT22;156;48.738;9.228;2023-05-10T04:55:50;12.10;99.90
336;DHT22;156;48.738;9.228;2023-05-10T04:58:17;12.10;99.90
336;DHT22;156;48.738;9.228;2023-05-10T05:00:44;12.10;99.90
336;DHT22;156;48.738;9.228;2023-05-10T05:03:11;12.10;99.90
336;DHT22;156;48.738;9.228;2023-05-10T05:05:38;12.00;99.90
336;DHT22;156;48.738;9.228;2023-05-10T05:08:05;12.20;99.90
336;DHT22;156;48.738;9.228;2023-05-10T05:10:32;12.30;99.90
336;DHT22;156;48.738;9.228;2023-05-10T05:13:00;12.40;99.90
336;DHT22;156;48.738;9.228;2023-05-10T05:15:27;12.40;99.90
336;DHT22;156;48.738;9.228;2023-05-10T05:17:54;12.50;99.90
336;DHT22;156;48.738;9.228;2023-05-10T05:20:22;12.50;99.90
336;DHT22;156;48.738;9.228;2023-05-10T05:22:49;12.60;99.90
336;DHT22;156;48.738;9.228;2023-05-10T05:25:16;12.70;99.90
336;DHT22;156;48.738;9.228;2023-05-10T05:27:43;12.70;99.90
336;DHT22;156;48.738;9.228;2023-05-10T05:30:12;12.80;99.90
336;DHT22;156;48.738;9.228;2023-05-10T05:32:39;12.80;99.90
336;DHT22;156;48.738;9.228;2023-05-10T05:35:06;12.80;99.90
336;DHT22;156;48.738;9.228;2023-05-10T05:37:33;12.80;99.90
336;DHT22;156;48.738;9.228;2023-05-10T05:40:00;12.70;99.90
336;DHT22;156;48.738;9.228;2023-05-10T05:42:28;12.80;99.90
336;DHT22;156;48.738;9.228;2023-05-10T05:44:55;12.70;99.90
336;DHT22;156;48.738;9.228;2023-05-10T05:47:24;12.80;99.90
336;DHT22;156;48.738;9.228;2023-05-10T05:49:51;12.80;99.90
336;DHT22;156;48.738;9.228;2023-05-10T05:52:18;12.80;99.90
336;DHT22;156;48.738;9.228;2023-05-10T05:54:44;12.80;99.90
336;DHT22;156;48.738;9.228;2023-05-10T05:57:12;12.60;99.90
336;DHT22;156;48.738;9.228;2023-05-10T05:59:39;12.50;99.90
336;DHT22;156;48.738;9.228;2023-05-10T06:02:09;12.60;99.90
336;DHT22;156;48.738;9.228;2023-05-10T06:04:40;12.60;99.90
336;DHT22;156;48.738;9.228;2023-05-10T06:07:07;12.70;99.90
336;DHT22;156;48.738;9.228;2023-05-10T06:09:34;12.80;99.90
336;DHT22;156;48.738;9.228;2023-05-10T06:12:01;13.00;99.90
336;DHT22;156;48.738;9.228;2023-05-10T06:14:28;13.00;99.90
336;DHT22;156;48.738;9.228;2023-05-10T06:16:55;13.10;99.90
336;DHT22;156;48.738;9.228;2023-05-10T06:19:22;13.10;99.90
336;DHT22;156;48.738;9.228;2023-05-10T06:21:50;13.20;99.90
336;DHT22;156;48.738;9.228;2023-05-10T06:24:17;13.20;99.90
336;DHT22;156;48.738;9.228;2023-05-10T06:26:44;13.30;99.90
336;DHT22;156;48.738;9.228;2023-05-10T06:29:11;13.20;99.90
336;DHT22;156;48.738;9.228;2023-05-10T06:31:37;13.20;99.90
336;DHT22;156;48.738;9.228;2023-05-10T06:34:07;13.30;99.90
336;DHT22;156;48.738;9.228;2023-05-10T06:36:34;13.40;99.90
336;DHT22;156;48.738;9.228;2023-05-10T06:39:03;13.50;99.90
336;DHT22;156;48.738;9.228;2023-05-10T06:41:29;13.40;99.90
336;DHT22;156;48.738;9.228;2023-05-10T06:43:56;13.40;99.90
336;DHT22;156;48.738;9.228;2023-05-10T06:46:23;13.30;99.90
336;DHT22;156;48.738;9.228;2023-05-10T06:48:50;13.40;99.90
336;DHT22;156;48.738;9.228;2023-05-10T06:51:17;13.40;99.90
336;DHT22;156;48.738;9.228;2023-05-10T06:53:44;13.30;99.90
336;DHT22;156;48.738;9.228;2023-05-10T06:56:12;13.40;99.90
336;DHT22;156;48.738;9.228;2023-05-10T06:58:39;13.30;99.90
336;DHT22;156;48.738;9.228;2023-05-10T07:01:06;13.30;99.90
336;DHT22;156;48.738;9.228;2023-05-10T07:03:33;13.40;99.90
336;DHT22;156;48.738;9.228;2023-05-10T07:06:01;13.30;99.90
336;DHT22;156;48.738;9.228;2023-05-10T07:08:29;13.20;99.90
336;DHT22;156;48.738;9.228;2023-05-10T07:11:00;13.20;99.90
336;DHT22;156;48.738;9.228;2023-05-10T07:13:29;13.20;99.90
336;DHT22;156;48.738;9.228;2023-05-10T07:15:56;13.10;99.90
336;DHT22;156;48.738;9.228;2023-05-10T07:18:23;13.10;99.90
336;DHT22;156;48.738;9.228;2023-05-10T07:20:50;13.30;99.90
336;DHT22;156;48.738;9.228;2023-05-10T07:23:17;13.40;99.90
336;DHT22;156;48.738;9.228;2023-05-10T07:25:45;13.50;99.90
336;DHT22;156;48.738;9.228;2023-05-10T07:28:12;13.60;99.90
336;DHT22;156;48.738;9.228;2023-05-10T07:30:41;13.70;99.90
336;DHT22;156;48.738;9.228;2023-05-10T07:33:09;13.80;99.90
336;DHT22;156;48.738;9.228;2023-05-10T07:35:37;14.00;99.90
336;DHT22;156;48.738;9.228;2023-05-10T07:38:04;13.90;99.90
336;DHT22;156;48.738;9.228;2023-05-10T07:40:31;13.70;99.90
336;DHT22;156;48.738;9.228;2023-05-10T07:42:58;13.60;99.90
336;DHT22;156;48.738;9.228;2023-05-10T07:45:27;13.60;99.90
336;DHT22;156;48.738;9.228;2023-05-10T07:47:55;13.80;99.90
336;DHT22;156;48.738;9.228;2023-05-10T07:50:22;13.90;99.90
336;DHT22;156;48.738;9.228;2023-05-10T07:52:49;13.90;99.90
336;DHT22;156;48.738;9.228;2023-05-10T07:55:16;14.00;99.90
336;DHT22;156;48.738;9.228;2023-05-10T07:57:44;13.80;99.90
336;DHT22;156;48.738;9.228;2023-05-10T08:00:17;14.00;99.90
336;DHT22;156;48.738;9.228;2023-05-10T08:06:16;14.20;99.90
336;DHT22;156;48.738;9.228;2023-05-10T08:08:43;14.10;99.90
336;DHT22;156;48.738;9.228;2023-05-10T08:11:11;14.30;99.90
336;DHT22;156;48.738;9.228;2023-05-10T08:13:38;14.10;99.90
336;DHT22;156;48.738;9.228;2023-05-10T08:16:05;14.10;99.90
336;DHT22;156;48.738;9.228;2023-05-10T08:18:32;14.00;99.90
336;DHT22;156;48.738;9.228;2023-05-10T08:20:59;14.10;99.90
336;DHT22;156;48.738;9.228;2023-05-10T08:23:51;14.10;99.90
336;DHT22;156;48.738;9.228;2023-05-10T08:35:20;14.20;99.90
336;DHT22;156;48.738;9.228;2023-05-10T08:37:47;14.70;99.90
336;DHT22;156;48.738;9.228;2023-05-10T08:40:35;14.60;99.90
336;DHT22;156;48.738;9.228;2023-05-10T08:43:29;15.20;99.90
336;DHT22;156;48.738;9.228;2023-05-10T08:45:56;14.70;99.90
336;DHT22;156;48.738;9.228;2023-05-10T08:48:28;14.30;99.90
336;DHT22;156;48.738;9.228;2023-05-10T08:50:58;14.40;99.90
336;DHT22;156;48.738;9.228;2023-05-10T08:53:29;14.50;99.90
336;DHT22;156;48.738;9.228;2023-05-10T08:55:58;14.40;99.90
336;DHT22;156;48.738;9.228;2023-05-10T08:58:31;14.00;99.90
336;DHT22;156;48.738;9.228;2023-05-10T09:00:59;14.10;99.90
336;DHT22;156;48.738;9.228;2023-05-10T09:03:27;14.30;99.90
336;DHT22;156;48.738;9.228;2023-05-10T09:05:54;14.40;99.90
336;DHT22;156;48.738;9.228;2023-05-10T09:12:14;14.60;99.90
336;DHT22;156;48.738;9.228;2023-05-10T09:15:13;14.60;99.90
336;DHT22;156;48.738;9.228;2023-05-10T09:17:42;14.50;99.90
336;DHT22;156;48.738;9.228;2023-05-10T09:20:48;14.70;99.90
336;DHT22;156;48.738;9.228;2023-05-10T09:23:30;15.00;99.90
336;DHT22;156;48.738;9.228;2023-05-10T09:26:04;14.40;99.90
336;DHT22;156;48.738;9.228;2023-05-10T09:28:33;14.30;99.90
336;DHT22;156;48.738;9.228;2023-05-10T09:31:00;14.40;99.90
336;DHT22;156;48.738;9.228;2023-05-10T09:33:45;14.40;99.90
336;DHT22;156;48.738;9.228;2023-05-10T09:36:16;14.00;99.90
336;DHT22;156;48.738;9.228;2023-05-10T09:39:10;14.00;99.90
336;DHT22;156;48.738;9.228;2023-05-10T09:42:03;13.40;99.90
336;DHT22;156;48.738;9.228;2023-05-10T09:44:52;13.00;99.90
336;DHT22;156;48.738;9.228;2023-05-10T09:47:34;13.00;99.90
336;DHT22;156;48.738;9.228;2023-05-10T09:50:09;12.90;99.90
336;DHT22;156;48.738;9.228;2023-05-10T09:52:50;12.80;99.90
336;DHT22;156;48.738;9.228;2023-05-10T09:55:22;13.50;99.90
336;DHT22;156;48.738;9.228;2023-05-10T09:57:58;13.10;99.90
336;DHT22;156;48.738;9.228;2023-05-10T10:00:34;13.30;99.90
336;DHT22;156;48.738;9.228;2023-05-10T10:03:03;13.80;99.90
336;DHT22;156;48.738;9.228;2023-05-10T10:05:30;13.80;99.90
336;DHT22;156;48.738;9.228;2023-05-10T10:07:58;14.00;99.90
336;DHT22;156;48.738;9.228;2023-05-10T10:10:25;14.10;99.90
336;DHT22;156;48.738;9.228;2023-05-10T10:12:52;14.00;99.90
336;DHT22;156;48.738;9.228;2023-05-10T10:15:20;14.30;99.90
336;DHT22;156;48.738;9.228;2023-05-10T10:17:49;14.70;99.90
336;DHT22;156;48.738;9.228;2023-05-10T10:20:16;15.00;99.90
336;DHT22;156;48.738;9.228;2023-05-10T10:22:44;15.10;99.90
336;DHT22;156;48.738;9.228;2023-05-10T10:25:12;15.00;93.60
336;DHT22;156;48.738;9.228;2023-05-10T10:27:55;15.20;95.40
336;DHT22;156;48.738;9.228;2023-05-10T10:30:27;14.90;59.40
336;DHT22;156;48.738;9.228;2023-05-10T10:33:13;15.10;96.50
336;DHT22;156;48.738;9.228;2023-05-10T10:35:45;15.00;70.40
336;DHT22;156;48.738;9.228;2023-05-10T10:38:14;14.90;74.30
336;DHT22;156;48.738;9.228;2023-05-10T10:40:42;14.80;77.30
336;DHT22;156;48.738;9.228;2023-05-10T10:43:21;14.70;75.00
336;DHT22;156;48.738;9.228;2023-05-10T10:46:09;14.70;85.00
336;DHT22;156;48.738;9.228;2023-05-10T10:48:38;14.60;79.00
336;DHT22;156;48.738;9.228;2023-05-10T10:51:05;14.60;80.50
336;DHT22;156;48.738;9.228;2023-05-10T10:53:32;14.80;90.30
336;DHT22;156;48.738;9.228;2023-05-10T10:56:05;14.80;74.30
336;DHT22;156;48.738;9.228;2023-05-10T10:58:34;15.00;87.20
336;DHT22;156;48.738;9.228;2023-05-10T11:01:10;15.10;74.70
336;DHT22;156;48.738;9.228;2023-05-10T11:03:39;15.20;49.10
336;DHT22;156;48.738;9.228;2023-05-10T11:06:06;15.30;64.60
336;DHT22;156;48.738;9.228;2023-05-10T11:08:39;14.90;55.60
336;DHT22;156;48.738;9.228;2023-05-10T11:11:07;14.50;64.30
336;DHT22;156;48.738;9.228;2023-05-10T11:13:38;14.20;68.70
336;DHT22;156;48.738;9.228;2023-05-10T11:16:16;13.90;85.20
336;DHT22;156;48.738;9.228;2023-05-10T11:18:57;13.60;53.40
336;DHT22;156;48.738;9.228;2023-05-10T11:21:25;13.80;56.70
336;DHT22;156;48.738;9.228;2023-05-10T11:23:54;13.80;69.30
336;DHT22;156;48.738;9.228;2023-05-10T11:26:23;13.60;63.20
336;DHT22;156;48.738;9.228;2023-05-10T11:28:51;13.50;63.00
336;DHT22;156;48.738;9.228;2023-05-10T11:31:28;13.60;74.10
336;DHT22;156;48.738;9.228;2023-05-10T11:33:58;13.60;43.80
336;DHT22;156;48.738;9.228;2023-05-10T11:36:27;13.60;9.90
336;DHT22;156;48.738;9.228;2023-05-10T11:38:56;13.50;1.00
336;DHT22;156;48.738;9.228;2023-05-10T11:41:37;13.60;1.00
336;DHT22;156;48.738;9.228;2023-05-10T11:44:04;13.60;1.00
336;DHT22;156;48.738;9.228;2023-05-10T11:46:53;13.60;1.00
336;DHT22;156;48.738;9.228;2023-05-10T11:52:28;13.40;1.00
336;DHT22;156;48.738;9.228;2023-05-10T11:54:59;13.20;1.00
336;DHT22;156;48.738;9.228;2023-05-10T11:57:32;13.30;3.30
336;DHT22;156;48.738;9.228;2023-05-10T12:00:01;13.00;19.60
336;DHT22;156;48.738;9.228;2023-05-10T12:02:29;12.90;23.10
336;DHT22;156;48.738;9.228;2023-05-10T12:05:01;12.90;32.70
336;DHT22;156;48.738;9.228;2023-05-10T12:07:29;12.90;58.70
336;DHT22;156;48.738;9.228;2023-05-10T12:10:04;12.80;76.30
336;DHT22;156;48.738;9.228;2023-05-10T12:12:38;12.90;61.10
336;DHT22;156;48.738;9.228;2023-05-10T12:15:10;13.00;39.90
336;DHT22;156;48.738;9.228;2023-05-10T12:17:40;13.00;55.80
336;DHT22;156;48.738;9.228;2023-05-10T12:20:16;13.20;67.80
336;DHT22;156;48.738;9.228;2023-05-10T12:22:50;13.30;42.40
336;DHT22;156;48.738;9.228;2023-05-10T12:25:18;13.40;28.20
336;DHT22;156;48.738;9.228;2023-05-10T12:27:52;13.60;25.20
336;DHT22;156;48.738;9.228;2023-05-10T12:30:21;13.80;17.00
336;DHT22;156;48.738;9.228;2023-05-10T12:32:51;13.90;11.00
336;DHT22;156;48.738;9.228;2023-05-10T12:35:20;14.00;1.00
336;DHT22;156;48.738;9.228;2023-05-10T12:37:50;14.20;1.00
336;DHT22;156;48.738;9.228;2023-05-10T12:40:17;14.40;1.00
336;DHT22;156;48.738;9.228;2023-05-10T12:42:47;14.40;1.00
336;DHT22;156;48.738;9.228;2023-05-10T12:45:14;14.50;1.00
336;DHT22;156;48.738;9.228;2023-05-10T12:47:41;14.40;1.00
336;DHT22;156;48.738;9.228;2023-05-10T12:50:08;14.40;1.00
336;DHT22;156;48.738;9.228;2023-05-10T12:52:37;14.20;1.00
336;DHT22;156;48.738;9.228;2023-05-10T12:55:04;14.10;1.00
336;DHT22;156;48.738;9.228;2023-05-10T12:57:32;14.20;1.00
336;DHT22;156;48.738;9.228;2023-05-10T12:59:59;14.30;1.00
336;DHT22;156;48.738;9.228;2023-05-10T13:02:25;14.30;1.00
336;DHT22;156;48.738;9.228;2023-05-10T13:04:52;14.20;1.00
336;DHT22;156;48.738;9.228;2023-05-10T13:07:19;14.10;1.00
336;DHT22;156;48.738;9.228;2023-05-10T13:09:48;14.00;1.00
336;DHT22;156;48.738;9.228;2023-05-10T13:12:15;13.90;1.00
336;DHT22;156;48.738;9.228;2023-05-10T13:14:41;14.00;1.00
336;DHT22;156;48.738;9.228;2023-05-10T13:17:08;14.00;1.00
336;DHT22;156;48.738;9.228;2023-05-10T13:19:47;14.10;1.00
336;DHT22;156;48.738;9.228;2023-05-10T13:22:16;14.30;1.00
336;DHT22;156;48.738;9.228;2023-05-10T13:24:43;14.50;1.00
336;DHT22;156;48.738;9.228;2023-05-10T13:27:12;14.60;1.00
336;DHT22;156;48.738;9.228;2023-05-10T13:29:39;14.90;1.00
336;DHT22;156;48.738;9.228;2023-05-10T13:32:06;15.10;1.00
336;DHT22;156;48.738;9.228;2023-05-10T13:34:33;15.30;1.00
336;DHT22;156;48.738;9.228;2023-05-10T13:37:01;15.60;1.00
336;DHT22;156;48.738;9.228;2023-05-10T13:39:28;15.80;1.00
336;DHT22;156;48.738;9.228;2023-05-10T13:41:58;15.80;1.00
336;DHT22;156;48.738;9.228;2023-05-10T13:44:27;15.70;1.00
336;DHT22;156;48.738;9.228;2023-05-10T13:46:53;15.70;1.00
336;DHT22;156;48.738;9.228;2023-05-10T13:49:20;15.60;1.00
336;DHT22;156;48.738;9.228;2023-05-10T13:51:48;15.50;1.00
336;DHT22;156;48.738;9.228;2023-05-10T13:54:15;15.50;1.00
336;DHT22;156;48.738;9.228;2023-05-10T13:56:45;15.40;1.00
336;DHT22;156;48.738;9.228;2023-05-10T13:59:15;15.60;1.00
336;DHT22;156;48.738;9.228;2023-05-10T14:01:43;15.60;1.00
336;DHT22;156;48.738;9.228;2023-05-10T14:04:11;15.70;1.00
336;DHT22;156;48.738;9.228;2023-05-10T14:06:38;15.60;1.00
336;DHT22;156;48.738;9.228;2023-05-10T14:09:05;15.60;1.00
336;DHT22;156;48.738;9.228;2023-05-10T14:11:32;15.40;1.00
336;DHT22;156;48.738;9.228;2023-05-10T14:13:58;15.50;1.00
336;DHT22;156;48.738;9.228;2023-05-10T14:16:25;15.70;1.00
336;DHT22;156;48.738;9.228;2023-05-10T14:18:54;15.70;1.00
336;DHT22;156;48.738;9.228;2023-05-10T14:21:21;15.60;1.00
336;DHT22;156;48.738;9.228;2023-05-10T14:23:48;15.50;1.00
336;DHT22;156;48.738;9.228;2023-05-10T14:26:17;15.40;1.00
336;DHT22;156;48.738;9.228;2023-05-10T14:28:44;15.50;1.00
336;DHT22;156;48.738;9.228;2023-05-10T14:31:11;15.60;1.00
336;DHT22;156;48.738;9.228;2023-05-10T14:33:38;15.80;1.00
336;DHT22;156;48.738;9.228;2023-05-10T14:36:07;15.90;1.00
336;DHT22;156;48.738;9.228;2023-05-10T14:38:36;16.00;1.00
336;DHT22;156;48.738;9.228;2023-05-10T14:41:05;16.10;1.00
336;DHT22;156;48.738;9.228;2023-05-10T14:43:32;16.10;1.00
336;DHT22;156;48.738;9.228;2023-05-10T14:45:59;16.10;1.00
336;DHT22;156;48.738;9.228;2023-05-10T14:48:28;16.20;1.00
336;DHT22;156;48.738;9.228;2023-05-10T14:50:55;16.10;1.00
336;DHT22;156;48.738;9.228;2023-05-10T14:53:24;16.10;1.00
336;DHT22;156;48.738;9.228;2023-05-10T14:55:51;15.90;1.00
336;DHT22;156;48.738;9.228;2023-05-10T14:58:19;15.70;1.00
336;DHT22;156;48.738;9.228;2023-05-10T15:00:48;15.70;1.00
336;DHT22;156;48.738;9.228;2023-05-10T15:03:17;15.60;1.00
336;DHT22;156;48.738;9.228;2023-05-10T15:05:44;15.50;1.00
336;DHT22;156;48.738;9.228;2023-05-10T15:08:11;15.40;1.00
336;DHT22;156;48.738;9.228;2023-05-10T15:10:45;15.40;1.00
336;DHT22;156;48.738;9.228;2023-05-10T15:13:14;15.60;1.00
336;DHT22;156;48.738;9.228;2023-05-10T15:15:41;15.60;1.00
336;DHT22;156;48.738;9.228;2023-05-10T15:18:09;15.50;1.00
336;DHT22;156;48.738;9.228;2023-05-10T15:20:36;15.50;1.00
336;DHT22;156;48.738;9.228;2023-05-10T15:23:03;15.70;1.00
336;DHT22;156;48.738;9.228;2023-05-10T15:25:32;15.90;1.00
336;DHT22;156;48.738;9.228;2023-05-10T15:28:06;15.60;1.00
336;DHT22;156;48.738;9.228;2023-05-10T15:30:33;15.60;1.00
336;DHT22;156;48.738;9.228;2023-05-10T15:33:00;15.70;1.00
336;DHT22;156;48.738;9.228;2023-05-10T15:35:27;15.90;1.00
336;DHT22;156;48.738;9.228;2023-05-10T15:37:54;16.00;1.00
336;DHT22;156;48.738;9.228;2023-05-10T15:40:24;16.10;1.00
336;DHT22;156;48.738;9.228;2023-05-10T15:42:53;16.10;1.00
336;DHT22;156;48.738;9.228;2023-05-10T15:45:42;16.20;1.00
336;DHT22;156;48.738;9.228;2023-05-10T15:48:09;16.00;1.00
336;DHT22;156;48.738;9.228;2023-05-10T15:50:58;15.90;1.00
336;DHT22;156;48.738;9.228;2023-05-10T15:53:31;16.00;1.00
336;DHT22;156;48.738;9.228;2023-05-10T15:55:58;16.30;1.00
336;DHT22;156;48.738;9.228;2023-05-10T15:58:25;16.10;1.00
336;DHT22;156;48.738;9.228;2023-05-10T16:00:58;16.00;1.00
336;DHT22;156;48.738;9.228;2023-05-10T16:03:25;15.80;1.00
336;DHT22;156;48.738;9.228;2023-05-10T16:05:55;15.80;1.00
336;DHT22;156;48.738;9.228;2023-05-10T16:08:21;16.00;1.00
336;DHT22;156;48.738;9.228;2023-05-10T16:10:49;16.00;1.00
336;DHT22;156;48.738;9.228;2023-05-10T16:13:17;15.80;1.00
336;DHT22;156;48.738;9.228;2023-05-10T16:15:43;15.70;1.00
336;DHT22;156;48.738;9.228;2023-05-10T16:18:12;15.50;1.00
336;DHT22;156;48.738;9.228;2023-05-10T16:20:39;15.40;1.00
336;DHT22;156;48.738;9.228;2023-05-10T16:23:06;15.40;1.00
336;DHT22;156;48.738;9.228;2023-05-10T16:25:34;15.30;1.00
336;DHT22;156;48.738;9.228;2023-05-10T16:28:01;15.30;1.00
336;DHT22;156;48.738;9.228;2023-05-10T16:30:31;15.40;1.00
336;DHT22;156;48.738;9.228;2023-05-10T16:32:59;15.40;1.00
336;DHT22;156;48.738;9.228;2023-05-10T16:35:30;15.50;1.00
336;DHT22;156;48.738;9.228;2023-05-10T16:37:57;15.50;1.00
336;DHT22;156;48.738;9.228;2023-05-10T16:40:24;15.50;1.00
336;DHT22;156;48.738;9.228;2023-05-10T16:42:51;15.50;1.00
336;DHT22;156;48.738;9.228;2023-05-10T16:45:17;15.50;1.00
336;DHT22;156;48.738;9.228;2023-05-10T16:47:44;15.50;1.00
336;DHT22;156;48.738;9.228;2023-05-10T16:50:12;15.60;1.00
336;DHT22;156;48.738;9.228;2023-05-10T16:52:40;15.70;1.00
336;DHT22;156;48.738;9.228;2023-05-10T16:55:10;15.70;1.00
336;DHT22;156;48.738;9.228;2023-05-10T16:57:42;15.70;1.00
336;DHT22;156;48.738;9.228;2023-05-10T17:00:12;15.70;1.00
336;DHT22;156;48.738;9.228;2023-05-10T17:02:40;15.60;1.00
336;DHT22;156;48.738;9.228;2023-05-10T17:05:09;15.40;1.00
336;DHT22;156;48.738;9.228;2023-05-10T17:07:37;15.30;1.00
336;DHT22;156;48.738;9.228;2023-05-10T17:10:06;15.40;1.00
336;DHT22;156;48.738;9.228;2023-05-10T17:12:33;15.30;1.00
336;DHT22;156;48.738;9.228;2023-05-10T17:15:00;15.00;1.00
336;DHT22;156;48.738;9.228;2023-05-10T17:17:27;15.00;1.00
336;DHT22;156;48.738;9.228;2023-05-10T17:19:56;15.00;1.00